createdAt,value
2022-08-17T00:02:26.856Z,20.82
2022-08-17T00:07:30.264Z,20.70
2022-08-17T00:12:44.346Z,20.55
2022-08-17T00:17:50.920Z,20.46
2022-08-17T00:23:23.927Z,20.40
2022-08-17T00:28:27.851Z,20.36
2022-08-17T00:33:37.552Z,20.29
2022-08-17T00:38:41.034Z,20.27
2022-08-17T00:43:48.039Z,20.24
2022-08-17T00:48:51.253Z,20.23
2022-08-17T00:54:00.909Z,20.08
2022-08-17T00:59:06.516Z,19.95
2022-08-17T01:04:13.063Z,19.87
2022-08-17T01:09:18.015Z,19.89
2022-08-17T01:14:23.581Z,19.91
2022-08-17T01:19:32.638Z,19.91
2022-08-17T01:24:38.845Z,19.91
2022-08-17T01:29:46.224Z,19.94
2022-08-17T01:34:51.012Z,20.00
2022-08-17T01:40:13.316Z,20.02
2022-08-17T01:45:21.358Z,20.05
2022-08-17T01:50:32.503Z,19.99
2022-08-17T01:55:43.638Z,19.93
2022-08-17T02:01:00.457Z,19.89
2022-08-17T02:06:06.080Z,19.88
2022-08-17T02:11:29.223Z,19.90
2022-08-17T02:16:37.098Z,19.92
2022-08-17T02:21:43.227Z,19.93
2022-08-17T02:26:46.848Z,19.96
2022-08-17T02:31:49.858Z,19.99
2022-08-17T02:36:53.678Z,20.03
2022-08-17T02:42:03.397Z,20.04
2022-08-17T02:47:07.790Z,20.02
2022-08-17T02:52:10.687Z,20.05
2022-08-17T02:57:14.175Z,20.05
2022-08-17T03:02:17.619Z,20.03
2022-08-17T03:07:20.730Z,20.00
2022-08-17T03:12:24.041Z,19.99
2022-08-17T03:17:27.047Z,19.91
2022-08-17T03:22:37.116Z,19.86
2022-08-17T03:27:42.122Z,19.77
2022-08-17T03:32:53.373Z,19.67
2022-08-17T03:38:01.080Z,19.58
2022-08-17T03:43:07.069Z,19.52
2022-08-17T03:48:29.633Z,19.52
2022-08-17T03:53:51.276Z,19.60
2022-08-17T03:58:54.282Z,19.79
2022-08-17T04:03:57.314Z,20.16
2022-08-17T04:09:00.292Z,20.60
2022-08-17T04:14:04.446Z,21.04
2022-08-17T04:19:07.433Z,21.92
2022-08-17T04:24:10.658Z,22.83
2022-08-17T04:29:13.958Z,23.63
2022-08-17T04:34:19.806Z,24.42
2022-08-17T04:39:25.265Z,25.16
2022-08-17T04:44:37.743Z,25.94
2022-08-17T04:49:41.249Z,26.65
2022-08-17T04:54:44.351Z,27.20
2022-08-17T04:59:47.259Z,27.94
2022-08-17T05:04:50.364Z,28.72
2022-08-17T05:09:53.270Z,29.53
2022-08-17T05:14:56.282Z,30.25
2022-08-17T05:19:59.284Z,30.77
2022-08-17T05:25:02.784Z,30.76
2022-08-17T05:30:06.757Z,30.85
2022-08-17T05:35:09.738Z,30.93
2022-08-17T05:40:14.124Z,31.14
2022-08-17T05:45:39.971Z,31.29
2022-08-17T05:51:01.181Z,31.52
2022-08-17T05:56:32.113Z,31.52
2022-08-17T06:01:47.933Z,31.55
2022-08-17T06:07:09.866Z,31.55
2022-08-17T06:12:22.911Z,32.00
2022-08-17T06:17:28.524Z,32.36
2022-08-17T06:22:36.398Z,32.33
2022-08-17T06:27:45.246Z,32.31
2022-08-17T06:32:52.240Z,32.51
2022-08-17T06:38:37.887Z,32.62
2022-08-17T06:44:01.588Z,33.02
2022-08-17T06:49:26.882Z,33.19
2022-08-17T06:54:39.604Z,33.37
2022-08-17T07:00:14.668Z,33.43
2022-08-17T07:05:20.841Z,33.57
2022-08-17T07:10:27.431Z,33.48
2022-08-17T07:15:42.633Z,33.29
2022-08-17T07:20:50.239Z,33.74
2022-08-17T07:25:53.251Z,34.24
2022-08-17T07:30:57.292Z,34.48
2022-08-17T07:36:02.670Z,34.52
2022-08-17T07:41:10.076Z,34.88
2022-08-17T07:46:41.357Z,35.17
2022-08-17T07:51:44.426Z,35.37
2022-08-17T07:56:53.371Z,35.06
2022-08-17T08:02:02.555Z,34.91
2022-08-17T08:07:12.202Z,34.92
2022-08-17T08:12:30.558Z,34.60
2022-08-17T08:17:46.722Z,34.56
2022-08-17T08:23:18.857Z,34.94
2022-08-17T08:28:34.126Z,35.28
2022-08-17T08:33:58.093Z,35.28
2022-08-17T08:39:05.151Z,35.06
2022-08-17T08:45:00.884Z,34.69
2022-08-17T08:50:37.232Z,34.53
2022-08-17T08:55:52.580Z,34.19
2022-08-17T09:00:58.867Z,33.60
2022-08-17T09:06:37.643Z,32.52
2022-08-17T09:12:01.228Z,31.60
2022-08-17T09:17:20.981Z,30.73
2022-08-17T09:22:34.038Z,30.15
2022-08-17T09:28:00.498Z,30.11
2022-08-17T09:33:08.010Z,30.20
2022-08-17T09:38:43.924Z,30.69
2022-08-17T09:44:23.587Z,30.88
2022-08-17T09:49:40.890Z,30.97
2022-08-17T09:54:46.151Z,30.78
2022-08-17T10:00:13.362Z,30.83
2022-08-17T10:05:39.850Z,30.99
2022-08-17T10:11:07.567Z,31.09
2022-08-17T10:16:16.312Z,31.02
2022-08-17T10:21:38.717Z,31.15
2022-08-17T10:26:56.064Z,31.36
2022-08-17T10:32:08.753Z,31.21
2022-08-17T10:37:31.108Z,31.18
2022-08-17T10:42:38.230Z,31.28
2022-08-17T10:48:21.460Z,31.19
2022-08-17T10:53:33.578Z,31.41
2022-08-17T10:58:56.354Z,31.52
2022-08-17T11:04:27.928Z,31.76
2022-08-17T11:10:01.447Z,31.98
2022-08-17T11:15:17.361Z,32.15
2022-08-17T11:20:57.637Z,31.88
2022-08-17T11:26:04.226Z,31.70
2022-08-17T11:31:41.373Z,31.71
2022-08-17T11:36:56.321Z,31.98
2022-08-17T11:42:17.554Z,32.19
2022-08-17T11:48:09.441Z,32.32
2022-08-17T11:53:37.922Z,32.29
2022-08-17T11:58:44.431Z,32.13
2022-08-17T12:03:55.392Z,31.98
2022-08-17T12:09:13.044Z,32.05
2022-08-17T12:14:35.723Z,32.22
2022-08-17T12:19:45.789Z,32.29
2022-08-17T12:25:01.701Z,32.10
2022-08-17T12:30:11.559Z,31.90
2022-08-17T12:35:29.823Z,31.70
2022-08-17T12:40:33.368Z,31.71
2022-08-17T12:45:40.382Z,31.52
2022-08-17T12:50:46.226Z,31.22
2022-08-17T12:55:51.388Z,30.82
2022-08-17T13:01:01.650Z,30.52
2022-08-17T13:06:08.916Z,30.48
2022-08-17T13:11:14.934Z,30.39
2022-08-17T13:16:27.665Z,30.17
2022-08-17T13:21:35.180Z,30.01
2022-08-17T13:26:59.895Z,29.93
2022-08-17T13:32:13.114Z,29.99
2022-08-17T13:37:34.989Z,30.39
2022-08-17T13:42:53.101Z,30.62
2022-08-17T13:48:06.398Z,30.95
2022-08-17T13:53:44.636Z,31.06
2022-08-17T13:59:05.415Z,31.09
2022-08-17T14:04:20.444Z,31.03
2022-08-17T14:09:37.670Z,31.07
2022-08-17T14:14:42.845Z,30.87
2022-08-17T14:19:45.848Z,30.59
2022-08-17T14:24:48.969Z,30.21
2022-08-17T14:29:53.599Z,29.87
2022-08-17T14:34:57.970Z,29.64
2022-08-17T14:40:07.539Z,29.49
2022-08-17T14:45:31.874Z,29.45
2022-08-17T14:50:38.920Z,29.69
2022-08-17T14:55:44.674Z,30.00
2022-08-17T15:00:51.271Z,30.29
2022-08-17T15:05:58.586Z,30.31
2022-08-17T15:11:03.137Z,30.31
2022-08-17T15:16:08.788Z,30.34
2022-08-17T15:21:11.900Z,30.31
2022-08-17T15:26:17.567Z,30.26
2022-08-17T15:31:20.682Z,30.12
2022-08-17T15:36:36.012Z,30.01
2022-08-17T15:41:42.051Z,29.94
2022-08-17T15:46:45.061Z,29.80
2022-08-17T15:51:49.196Z,29.65
2022-08-17T15:56:52.198Z,29.53
2022-08-17T16:03:16.133Z,29.47
2022-08-17T16:07:26.473Z,29.54
2022-08-17T16:12:29.987Z,29.56
2022-08-17T16:17:40.029Z,29.52
2022-08-17T16:22:46.097Z,29.42
2022-08-17T16:27:53.626Z,29.23
2022-08-17T16:32:59.842Z,28.97
2022-08-17T16:38:03.123Z,28.73
2022-08-17T16:43:10.817Z,28.50
2022-08-17T16:48:15.813Z,28.30
2022-08-17T16:53:19.490Z,28.11
2022-08-17T16:58:22.888Z,27.97
2022-08-17T17:03:27.862Z,27.83
2022-08-17T17:08:38.446Z,27.70
2022-08-17T17:13:49.382Z,27.53
2022-08-17T17:19:08.370Z,27.37
2022-08-17T17:24:18.446Z,27.20
2022-08-17T17:29:48.085Z,27.04
2022-08-17T17:34:59.986Z,26.86
2022-08-17T17:40:23.123Z,26.67
2022-08-17T17:45:35.997Z,26.49
2022-08-17T17:50:49.331Z,26.33
2022-08-17T17:56:39.234Z,26.16
2022-08-17T18:02:36.639Z,25.99
2022-08-17T18:07:44.540Z,25.80
2022-08-17T18:12:55.459Z,25.63
2022-08-17T18:18:20.067Z,25.50
2022-08-17T18:23:27.902Z,25.37
2022-08-17T18:28:39.891Z,25.25
2022-08-17T18:33:49.354Z,25.15
2022-08-17T18:39:15.507Z,25.06
2022-08-17T18:44:32.729Z,25.00
2022-08-17T18:49:36.382Z,24.92
2022-08-17T18:54:39.790Z,24.86
2022-08-17T18:59:48.377Z,24.75
2022-08-17T19:05:02.902Z,24.59
2022-08-17T19:10:46.342Z,24.41
2022-08-17T19:16:15.935Z,24.24
2022-08-17T19:21:30.570Z,24.10
2022-08-17T19:26:54.246Z,23.94
2022-08-17T19:32:02.753Z,23.83
2022-08-17T19:37:24.332Z,23.73
2022-08-17T19:42:33.002Z,23.65
2022-08-17T19:48:03.410Z,23.57
2022-08-17T19:53:20.763Z,23.48
2022-08-17T19:58:42.514Z,23.40
2022-08-17T20:04:00.468Z,23.32
2022-08-17T20:09:29.665Z,23.25
2022-08-17T20:15:04.336Z,23.23
2022-08-17T20:20:41.960Z,23.24
2022-08-17T20:26:03.682Z,23.26
2022-08-17T20:31:41.012Z,23.19
2022-08-17T20:37:13.840Z,23.04
2022-08-17T20:42:22.772Z,22.83
2022-08-17T20:47:32.734Z,22.61
2022-08-17T20:52:48.034Z,22.47
2022-08-17T20:57:51.205Z,22.37
2022-08-17T21:03:22.940Z,22.28
2022-08-17T21:08:58.080Z,22.20
2022-08-17T21:14:08.687Z,22.09
2022-08-17T21:19:30.948Z,21.91
2022-08-17T21:25:17.288Z,21.76
2022-08-17T21:30:29.685Z,21.66
2022-08-17T21:35:47.409Z,21.58
2022-08-17T21:40:53.503Z,21.50
2022-08-17T21:46:10.944Z,21.43
2022-08-17T21:51:19.724Z,21.30
2022-08-17T21:56:36.478Z,21.20
2022-08-17T22:01:43.307Z,21.06
2022-08-17T22:06:52.502Z,20.95
2022-08-17T22:12:09.390Z,20.92
2022-08-17T22:17:23.358Z,20.92
2022-08-17T22:22:32.816Z,20.94
2022-08-17T22:27:52.106Z,20.91
2022-08-17T22:32:55.950Z,20.83
2022-08-17T22:38:19.080Z,20.78
2022-08-17T22:43:26.145Z,20.70
2022-08-17T22:48:31.277Z,20.60
2022-08-17T22:53:54.551Z,20.48
2022-08-17T22:59:18.547Z,20.35
2022-08-17T23:04:33.333Z,20.24
2022-08-17T23:09:36.979Z,20.21
2022-08-17T23:14:45.811Z,20.18
2022-08-17T23:19:48.803Z,20.17
2022-08-17T23:24:52.012Z,20.11
2022-08-17T23:29:55.969Z,20.02
2022-08-17T23:34:59.295Z,19.95
2022-08-17T23:40:06.503Z,19.84
2022-08-17T23:45:10.299Z,19.73
2022-08-17T23:50:16.670Z,19.63
2022-08-17T23:55:20.085Z,19.56
